sensor_id;sensor_type;location;lat;lon;timestamp;P1;durP1;ratioP1;P2;durP2;ratioP2
23300;SDS011;11819;51.394;12.340;2023-08-24T00:02:02;11.27;;;8.43;;
23300;SDS011;11819;51.394;12.340;2023-08-24T00:04:28;11.48;;;8.52;;
23300;SDS011;11819;51.394;12.340;2023-08-24T00:06:54;9.25;;;8.35;;
23300;SDS011;11819;51.394;12.340;2023-08-24T00:09:20;10.30;;;8.23;;
23300;SDS011;11819;51.394;12.340;2023-08-24T00:11:45;10.57;;;8.85;;
23300;SDS011;11819;51.394;12.340;2023-08-24T00:14:11;9.88;;;8.75;;
23300;SDS011;11819;51.394;12.340;2023-08-24T00:16:37;10.00;;;9.00;;
23300;SDS011;11819;51.394;12.340;2023-08-24T00:19:03;11.07;;;9.05;;
23300;SDS011;11819;51.394;12.340;2023-08-24T00:21:29;11.00;;;9.32;;
23300;SDS011;11819;51.394;12.340;2023-08-24T00:23:55;10.45;;;8.80;;
23300;SDS011;11819;51.394;12.340;2023-08-24T00:26:20;9.95;;;8.95;;
23300;SDS011;11819;51.394;12.340;2023-08-24T00:28:46;9.68;;;8.77;;
23300;SDS011;11819;51.394;12.340;2023-08-24T00:31:12;10.68;;;8.88;;
23300;SDS011;11819;51.394;12.340;2023-08-24T00:33:37;11.45;;;9.15;;
23300;SDS011;11819;51.394;12.340;2023-08-24T00:36:04;11.60;;;9.35;;
23300;SDS011;11819;51.394;12.340;2023-08-24T00:38:31;12.35;;;9.15;;
23300;SDS011;11819;51.394;12.340;2023-08-24T00:40:57;10.93;;;9.30;;
23300;SDS011;11819;51.394;12.340;2023-08-24T00:43:24;10.43;;;9.45;;
23300;SDS011;11819;51.394;12.340;2023-08-24T00:45:51;11.45;;;9.35;;
23300;SDS011;11819;51.394;12.340;2023-08-24T00:48:20;10.85;;;9.75;;
23300;SDS011;11819;51.394;12.340;2023-08-24T00:50:51;10.65;;;9.65;;
23300;SDS011;11819;51.394;12.340;2023-08-24T00:53:18;9.88;;;8.88;;
23300;SDS011;11819;51.394;12.340;2023-08-24T00:55:45;11.77;;;9.48;;
23300;SDS011;11819;51.394;12.340;2023-08-24T00:58:11;10.43;;;9.43;;
23300;SDS011;11819;51.394;12.340;2023-08-24T01:00:38;10.45;;;9.35;;
23300;SDS011;11819;51.394;12.340;2023-08-24T01:03:04;10.65;;;9.55;;
23300;SDS011;11819;51.394;12.340;2023-08-24T01:05:30;9.85;;;8.93;;
23300;SDS011;11819;51.394;12.340;2023-08-24T01:07:55;10.23;;;9.13;;
23300;SDS011;11819;51.394;12.340;2023-08-24T01:10:21;11.15;;;10.05;;
23300;SDS011;11819;51.394;12.340;2023-08-24T01:15:31;10.38;;;9.43;;
23300;SDS011;11819;51.394;12.340;2023-08-24T01:18:04;10.82;;;9.75;;
23300;SDS011;11819;51.394;12.340;2023-08-24T01:20:34;11.02;;;9.93;;
23300;SDS011;11819;51.394;12.340;2023-08-24T01:23:08;11.43;;;10.23;;
23300;SDS011;11819;51.394;12.340;2023-08-24T01:25:54;10.65;;;9.55;;
23300;SDS011;11819;51.394;12.340;2023-08-24T01:28:28;11.80;;;10.25;;
23300;SDS011;11819;51.394;12.340;2023-08-24T01:30:55;14.02;;;9.82;;
23300;SDS011;11819;51.394;12.340;2023-08-24T01:33:21;10.95;;;9.95;;
23300;SDS011;11819;51.394;12.340;2023-08-24T01:35:46;11.73;;;10.20;;
23300;SDS011;11819;51.394;12.340;2023-08-24T01:38:12;12.75;;;10.55;;
23300;SDS011;11819;51.394;12.340;2023-08-24T01:40:59;12.10;;;10.68;;
23300;SDS011;11819;51.394;12.340;2023-08-24T01:43:36;12.18;;;10.43;;
23300;SDS011;11819;51.394;12.340;2023-08-24T01:46:05;11.73;;;10.55;;
23300;SDS011;11819;51.394;12.340;2023-08-24T01:48:32;12.85;;;10.73;;
23300;SDS011;11819;51.394;12.340;2023-08-24T01:50:58;11.65;;;10.45;;
23300;SDS011;11819;51.394;12.340;2023-08-24T01:53:26;15.13;;;11.73;;
23300;SDS011;11819;51.394;12.340;2023-08-24T01:55:53;12.52;;;11.38;;
23300;SDS011;11819;51.394;12.340;2023-08-24T01:58:18;13.23;;;11.93;;
23300;SDS011;11819;51.394;12.340;2023-08-24T02:00:45;12.50;;;11.30;;
23300;SDS011;11819;51.394;12.340;2023-08-24T02:03:10;14.15;;;11.73;;
23300;SDS011;11819;51.394;12.340;2023-08-24T02:05:36;12.95;;;11.63;;
23300;SDS011;11819;51.394;12.340;2023-08-24T02:08:01;13.55;;;12.15;;
23300;SDS011;11819;51.394;12.340;2023-08-24T02:10:27;13.55;;;12.25;;
23300;SDS011;11819;51.394;12.340;2023-08-24T02:12:53;14.25;;;12.38;;
23300;SDS011;11819;51.394;12.340;2023-08-24T02:15:19;13.32;;;11.98;;
23300;SDS011;11819;51.394;12.340;2023-08-24T02:17:45;14.40;;;12.93;;
23300;SDS011;11819;51.394;12.340;2023-08-24T02:20:10;13.52;;;12.23;;
23300;SDS011;11819;51.394;12.340;2023-08-24T02:22:37;15.02;;;12.23;;
23300;SDS011;11819;51.394;12.340;2023-08-24T02:25:03;13.80;;;12.40;;
23300;SDS011;11819;51.394;12.340;2023-08-24T02:27:30;14.25;;;12.75;;
23300;SDS011;11819;51.394;12.340;2023-08-24T02:29:56;13.93;;;12.60;;
23300;SDS011;11819;51.394;12.340;2023-08-24T02:32:23;14.07;;;12.57;;
23300;SDS011;11819;51.394;12.340;2023-08-24T02:34:49;14.57;;;12.85;;
23300;SDS011;11819;51.394;12.340;2023-08-24T02:37:14;13.68;;;12.38;;
23300;SDS011;11819;51.394;12.340;2023-08-24T02:39:40;14.15;;;12.63;;
23300;SDS011;11819;51.394;12.340;2023-08-24T02:42:06;14.75;;;13.25;;
23300;SDS011;11819;51.394;12.340;2023-08-24T02:44:32;16.27;;;12.93;;
23300;SDS011;11819;51.394;12.340;2023-08-24T02:46:57;14.38;;;12.73;;
23300;SDS011;11819;51.394;12.340;2023-08-24T02:49:24;13.65;;;12.23;;
23300;SDS011;11819;51.394;12.340;2023-08-24T02:51:49;13.55;;;12.35;;
23300;SDS011;11819;51.394;12.340;2023-08-24T02:54:15;14.07;;;11.98;;
23300;SDS011;11819;51.394;12.340;2023-08-24T02:56:41;13.63;;;12.32;;
23300;SDS011;11819;51.394;12.340;2023-08-24T02:59:07;15.55;;;13.93;;
23300;SDS011;11819;51.394;12.340;2023-08-24T03:01:32;15.13;;;13.63;;
23300;SDS011;11819;51.394;12.340;2023-08-24T03:03:59;15.20;;;13.60;;
23300;SDS011;11819;51.394;12.340;2023-08-24T03:06:25;14.40;;;13.00;;
23300;SDS011;11819;51.394;12.340;2023-08-24T03:08:51;15.02;;;13.52;;
23300;SDS011;11819;51.394;12.340;2023-08-24T03:11:16;16.42;;;14.85;;
23300;SDS011;11819;51.394;12.340;2023-08-24T03:13:42;15.77;;;14.27;;
23300;SDS011;11819;51.394;12.340;2023-08-24T03:16:08;15.80;;;14.27;;
23300;SDS011;11819;51.394;12.340;2023-08-24T03:18:35;16.52;;;14.82;;
23300;SDS011;11819;51.394;12.340;2023-08-24T03:21:03;16.88;;;15.10;;
23300;SDS011;11819;51.394;12.340;2023-08-24T03:23:28;16.40;;;14.80;;
23300;SDS011;11819;51.394;12.340;2023-08-24T03:25:54;15.63;;;14.07;;
23300;SDS011;11819;51.394;12.340;2023-08-24T03:28:20;16.48;;;14.63;;
23300;SDS011;11819;51.394;12.340;2023-08-24T03:30:47;16.60;;;14.43;;
23300;SDS011;11819;51.394;12.340;2023-08-24T03:33:17;16.05;;;14.40;;
23300;SDS011;11819;51.394;12.340;2023-08-24T03:35:44;16.75;;;15.05;;
23300;SDS011;11819;51.394;12.340;2023-08-24T03:38:10;16.30;;;14.52;;
23300;SDS011;11819;51.394;12.340;2023-08-24T03:40:36;16.27;;;14.27;;
23300;SDS011;11819;51.394;12.340;2023-08-24T03:43:02;16.48;;;14.77;;
23300;SDS011;11819;51.394;12.340;2023-08-24T03:45:28;18.75;;;15.30;;
23300;SDS011;11819;51.394;12.340;2023-08-24T03:47:55;15.82;;;14.23;;
23300;SDS011;11819;51.394;12.340;2023-08-24T03:50:21;15.40;;;13.73;;
23300;SDS011;11819;51.394;12.340;2023-08-24T03:52:50;15.35;;;13.77;;
23300;SDS011;11819;51.394;12.340;2023-08-24T03:55:16;16.27;;;14.55;;
23300;SDS011;11819;51.394;12.340;2023-08-24T03:57:43;16.00;;;14.40;;
23300;SDS011;11819;51.394;12.340;2023-08-24T04:00:08;18.75;;;13.45;;
23300;SDS011;11819;51.394;12.340;2023-08-24T04:02:41;15.13;;;13.73;;
23300;SDS011;11819;51.394;12.340;2023-08-24T04:05:08;17.95;;;14.00;;
23300;SDS011;11819;51.394;12.340;2023-08-24T04:07:34;16.35;;;14.75;;
23300;SDS011;11819;51.394;12.340;2023-08-24T04:10:03;15.32;;;13.82;;
23300;SDS011;11819;51.394;12.340;2023-08-24T04:12:32;15.95;;;14.30;;
23300;SDS011;11819;51.394;12.340;2023-08-24T04:14:58;16.90;;;14.07;;
23300;SDS011;11819;51.394;12.340;2023-08-24T04:17:24;15.40;;;13.73;;
23300;SDS011;11819;51.394;12.340;2023-08-24T04:19:50;17.15;;;14.20;;
23300;SDS011;11819;51.394;12.340;2023-08-24T04:22:16;16.05;;;14.43;;
23300;SDS011;11819;51.394;12.340;2023-08-24T04:24:41;15.65;;;14.02;;
23300;SDS011;11819;51.394;12.340;2023-08-24T04:27:07;16.33;;;14.55;;
23300;SDS011;11819;51.394;12.340;2023-08-24T04:29:33;16.92;;;14.90;;
23300;SDS011;11819;51.394;12.340;2023-08-24T04:31:58;17.08;;;14.50;;
23300;SDS011;11819;51.394;12.340;2023-08-24T04:34:24;17.48;;;15.32;;
23300;SDS011;11819;51.394;12.340;2023-08-24T04:36:50;16.13;;;14.52;;
23300;SDS011;11819;51.394;12.340;2023-08-24T04:39:15;16.20;;;14.55;;
23300;SDS011;11819;51.394;12.340;2023-08-24T04:41:43;16.58;;;14.88;;
23300;SDS011;11819;51.394;12.340;2023-08-24T04:44:09;17.00;;;15.27;;
23300;SDS011;11819;51.394;12.340;2023-08-24T04:46:35;20.95;;;16.02;;
23300;SDS011;11819;51.394;12.340;2023-08-24T04:49:00;17.52;;;15.05;;
23300;SDS011;11819;51.394;12.340;2023-08-24T04:51:26;16.88;;;15.02;;
23300;SDS011;11819;51.394;12.340;2023-08-24T04:53:53;19.17;;;15.57;;
23300;SDS011;11819;51.394;12.340;2023-08-24T04:56:19;17.42;;;14.90;;
23300;SDS011;11819;51.394;12.340;2023-08-24T04:58:52;17.13;;;15.45;;
23300;SDS011;11819;51.394;12.340;2023-08-24T05:01:22;17.25;;;15.60;;
23300;SDS011;11819;51.394;12.340;2023-08-24T05:03:50;18.55;;;16.75;;
23300;SDS011;11819;51.394;12.340;2023-08-24T05:06:17;18.40;;;16.52;;
23300;SDS011;11819;51.394;12.340;2023-08-24T05:08:43;20.23;;;17.50;;
23300;SDS011;11819;51.394;12.340;2023-08-24T05:11:27;25.38;;;17.60;;
23300;SDS011;11819;51.394;12.340;2023-08-24T05:13:56;19.25;;;17.35;;
23300;SDS011;11819;51.394;12.340;2023-08-24T05:16:22;23.20;;;18.83;;
23300;SDS011;11819;51.394;12.340;2023-08-24T05:18:48;21.17;;;18.77;;
23300;SDS011;11819;51.394;12.340;2023-08-24T05:21:14;20.33;;;18.25;;
23300;SDS011;11819;51.394;12.340;2023-08-24T05:23:39;22.20;;;19.48;;
23300;SDS011;11819;51.394;12.340;2023-08-24T05:26:05;20.52;;;18.38;;
23300;SDS011;11819;51.394;12.340;2023-08-24T05:28:31;20.15;;;17.83;;
23300;SDS011;11819;51.394;12.340;2023-08-24T05:30:57;21.27;;;18.80;;
23300;SDS011;11819;51.394;12.340;2023-08-24T05:33:24;21.25;;;18.52;;
23300;SDS011;11819;51.394;12.340;2023-08-24T05:35:50;20.27;;;18.15;;
23300;SDS011;11819;51.394;12.340;2023-08-24T05:38:16;19.95;;;17.95;;
23300;SDS011;11819;51.394;12.340;2023-08-24T05:40:43;20.25;;;18.30;;
23300;SDS011;11819;51.394;12.340;2023-08-24T05:43:11;20.30;;;18.17;;
23300;SDS011;11819;51.394;12.340;2023-08-24T05:45:37;20.38;;;18.17;;
23300;SDS011;11819;51.394;12.340;2023-08-24T05:48:05;19.92;;;17.20;;
23300;SDS011;11819;51.394;12.340;2023-08-24T05:50:31;23.17;;;17.88;;
23300;SDS011;11819;51.394;12.340;2023-08-24T05:52:57;19.10;;;17.30;;
23300;SDS011;11819;51.394;12.340;2023-08-24T05:55:22;19.98;;;17.55;;
23300;SDS011;11819;51.394;12.340;2023-08-24T05:57:48;21.75;;;17.98;;
23300;SDS011;11819;51.394;12.340;2023-08-24T06:00:14;20.83;;;17.15;;
23300;SDS011;11819;51.394;12.340;2023-08-24T06:02:41;17.92;;;16.02;;
23300;SDS011;11819;51.394;12.340;2023-08-24T06:05:07;18.63;;;16.70;;
23300;SDS011;11819;51.394;12.340;2023-08-24T06:07:34;19.95;;;16.42;;
23300;SDS011;11819;51.394;12.340;2023-08-24T06:10:00;23.35;;;17.63;;
23300;SDS011;11819;51.394;12.340;2023-08-24T06:12:25;21.95;;;16.88;;
23300;SDS011;11819;51.394;12.340;2023-08-24T06:14:51;19.48;;;16.45;;
23300;SDS011;11819;51.394;12.340;2023-08-24T06:17:17;22.00;;;17.17;;
23300;SDS011;11819;51.394;12.340;2023-08-24T06:19:42;19.10;;;16.17;;
23300;SDS011;11819;51.394;12.340;2023-08-24T06:22:08;17.75;;;15.85;;
23300;SDS011;11819;51.394;12.340;2023-08-24T06:24:34;17.75;;;15.85;;
23300;SDS011;11819;51.394;12.340;2023-08-24T06:27:00;20.02;;;16.85;;
23300;SDS011;11819;51.394;12.340;2023-08-24T06:29:27;21.05;;;16.45;;
23300;SDS011;11819;51.394;12.340;2023-08-24T06:31:53;19.05;;;15.85;;
23300;SDS011;11819;51.394;12.340;2023-08-24T06:34:20;17.70;;;15.77;;
23300;SDS011;11819;51.394;12.340;2023-08-24T06:36:45;17.50;;;15.73;;
23300;SDS011;11819;51.394;12.340;2023-08-24T06:39:12;19.40;;;14.98;;
23300;SDS011;11819;51.394;12.340;2023-08-24T06:41:38;20.60;;;15.27;;
23300;SDS011;11819;51.394;12.340;2023-08-24T06:44:06;19.27;;;15.10;;
23300;SDS011;11819;51.394;12.340;2023-08-24T06:46:32;20.63;;;15.55;;
23300;SDS011;11819;51.394;12.340;2023-08-24T06:48:58;18.42;;;16.45;;
23300;SDS011;11819;51.394;12.340;2023-08-24T06:51:24;20.38;;;16.02;;
23300;SDS011;11819;51.394;12.340;2023-08-24T06:53:51;19.10;;;17.13;;
23300;SDS011;11819;51.394;12.340;2023-08-24T06:56:17;29.88;;;25.58;;
23300;SDS011;11819;51.394;12.340;2023-08-24T06:58:43;26.77;;;23.63;;
23300;SDS011;11819;51.394;12.340;2023-08-24T07:01:10;22.50;;;20.13;;
23300;SDS011;11819;51.394;12.340;2023-08-24T07:03:36;21.15;;;17.20;;
23300;SDS011;11819;51.394;12.340;2023-08-24T07:06:02;16.17;;;14.55;;
23300;SDS011;11819;51.394;12.340;2023-08-24T07:08:30;17.35;;;14.80;;
23300;SDS011;11819;51.394;12.340;2023-08-24T07:10:56;17.27;;;14.18;;
23300;SDS011;11819;51.394;12.340;2023-08-24T07:13:21;15.40;;;13.43;;
23300;SDS011;11819;51.394;12.340;2023-08-24T07:15:47;15.85;;;13.73;;
23300;SDS011;11819;51.394;12.340;2023-08-24T07:18:13;16.77;;;13.35;;
23300;SDS011;11819;51.394;12.340;2023-08-24T07:20:38;14.23;;;12.70;;
23300;SDS011;11819;51.394;12.340;2023-08-24T07:23:04;15.07;;;12.70;;
23300;SDS011;11819;51.394;12.340;2023-08-24T07:25:29;19.35;;;12.25;;
23300;SDS011;11819;51.394;12.340;2023-08-24T07:27:55;17.13;;;12.35;;
23300;SDS011;11819;51.394;12.340;2023-08-24T07:30:24;16.35;;;12.25;;
23300;SDS011;11819;51.394;12.340;2023-08-24T07:32:53;14.88;;;11.30;;
23300;SDS011;11819;51.394;12.340;2023-08-24T07:35:19;15.32;;;11.95;;
23300;SDS011;11819;51.394;12.340;2023-08-24T07:37:49;13.35;;;11.95;;
23300;SDS011;11819;51.394;12.340;2023-08-24T07:40:15;13.90;;;11.30;;
23300;SDS011;11819;51.394;12.340;2023-08-24T07:42:48;11.77;;;10.57;;
23300;SDS011;11819;51.394;12.340;2023-08-24T07:45:21;12.98;;;10.63;;
23300;SDS011;11819;51.394;12.340;2023-08-24T07:47:48;11.43;;;10.13;;
23300;SDS011;11819;51.394;12.340;2023-08-24T07:50:14;13.43;;;10.52;;
23300;SDS011;11819;51.394;12.340;2023-08-24T07:52:40;12.52;;;10.20;;
23300;SDS011;11819;51.394;12.340;2023-08-24T07:55:06;12.10;;;9.77;;
23300;SDS011;11819;51.394;12.340;2023-08-24T07:57:36;13.50;;;10.23;;
23300;SDS011;11819;51.394;12.340;2023-08-24T08:00:03;15.77;;;10.10;;
23300;SDS011;11819;51.394;12.340;2023-08-24T08:02:37;10.88;;;9.20;;
23300;SDS011;11819;51.394;12.340;2023-08-24T08:05:03;12.25;;;9.00;;
23300;SDS011;11819;51.394;12.340;2023-08-24T08:07:29;10.68;;;8.52;;
23300;SDS011;11819;51.394;12.340;2023-08-24T08:09:55;13.52;;;9.07;;
23300;SDS011;11819;51.394;12.340;2023-08-24T08:12:21;15.73;;;9.05;;
23300;SDS011;11819;51.394;12.340;2023-08-24T08:14:47;19.33;;;9.18;;
23300;SDS011;11819;51.394;12.340;2023-08-24T08:17:13;12.23;;;8.82;;
23300;SDS011;11819;51.394;12.340;2023-08-24T08:19:38;11.40;;;9.15;;
23300;SDS011;11819;51.394;12.340;2023-08-24T08:22:04;11.20;;;8.90;;
23300;SDS011;11819;51.394;12.340;2023-08-24T08:24:30;10.95;;;7.85;;
23300;SDS011;11819;51.394;12.340;2023-08-24T08:26:56;11.15;;;8.02;;
23300;SDS011;11819;51.394;12.340;2023-08-24T08:29:21;11.55;;;7.10;;
23300;SDS011;11819;51.394;12.340;2023-08-24T08:31:47;9.98;;;7.60;;
23300;SDS011;11819;51.394;12.340;2023-08-24T08:34:13;11.43;;;7.05;;
23300;SDS011;11819;51.394;12.340;2023-08-24T08:36:38;8.68;;;7.40;;
23300;SDS011;11819;51.394;12.340;2023-08-24T08:39:04;14.70;;;7.20;;
23300;SDS011;11819;51.394;12.340;2023-08-24T08:41:33;9.45;;;6.60;;
23300;SDS011;11819;51.394;12.340;2023-08-24T08:44:04;12.63;;;7.75;;
23300;SDS011;11819;51.394;12.340;2023-08-24T08:46:32;8.93;;;7.25;;
23300;SDS011;11819;51.394;12.340;2023-08-24T08:48:58;9.18;;;7.32;;
23300;SDS011;11819;51.394;12.340;2023-08-24T08:51:25;8.32;;;6.60;;
23300;SDS011;11819;51.394;12.340;2023-08-24T08:53:51;7.93;;;6.30;;
23300;SDS011;11819;51.394;12.340;2023-08-24T08:56:17;9.90;;;6.50;;
23300;SDS011;11819;51.394;12.340;2023-08-24T08:58:43;9.27;;;5.97;;
23300;SDS011;11819;51.394;12.340;2023-08-24T09:01:11;7.25;;;6.28;;
23300;SDS011;11819;51.394;12.340;2023-08-24T09:03:37;10.52;;;6.88;;
23300;SDS011;11819;51.394;12.340;2023-08-24T09:06:04;12.60;;;6.95;;
23300;SDS011;11819;51.394;12.340;2023-08-24T09:08:30;7.72;;;6.25;;
23300;SDS011;11819;51.394;12.340;2023-08-24T09:10:57;10.35;;;6.43;;
23300;SDS011;11819;51.394;12.340;2023-08-24T09:13:23;8.38;;;6.28;;
23300;SDS011;11819;51.394;12.340;2023-08-24T09:15:51;12.38;;;6.60;;
23300;SDS011;11819;51.394;12.340;2023-08-24T09:18:18;8.93;;;6.72;;
23300;SDS011;11819;51.394;12.340;2023-08-24T09:20:44;10.43;;;6.43;;
23300;SDS011;11819;51.394;12.340;2023-08-24T09:23:17;11.57;;;6.47;;
23300;SDS011;11819;51.394;12.340;2023-08-24T09:25:46;11.38;;;6.60;;
23300;SDS011;11819;51.394;12.340;2023-08-24T09:28:13;9.70;;;6.72;;
23300;SDS011;11819;51.394;12.340;2023-08-24T09:30:38;10.45;;;6.15;;
23300;SDS011;11819;51.394;12.340;2023-08-24T09:33:09;10.63;;;7.20;;
23300;SDS011;11819;51.394;12.340;2023-08-24T09:35:35;8.50;;;6.43;;
23300;SDS011;11819;51.394;12.340;2023-08-24T09:38:21;15.30;;;6.75;;
23300;SDS011;11819;51.394;12.340;2023-08-24T09:40:52;7.28;;;6.30;;
23300;SDS011;11819;51.394;12.340;2023-08-24T09:43:18;10.65;;;6.88;;
23300;SDS011;11819;51.394;12.340;2023-08-24T09:45:50;11.93;;;6.60;;
23300;SDS011;11819;51.394;12.340;2023-08-24T09:48:16;7.65;;;6.45;;
23300;SDS011;11819;51.394;12.340;2023-08-24T09:50:46;8.73;;;7.28;;
23300;SDS011;11819;51.394;12.340;2023-08-24T09:53:17;12.52;;;7.47;;
23300;SDS011;11819;51.394;12.340;2023-08-24T09:55:54;11.10;;;6.82;;
23300;SDS011;11819;51.394;12.340;2023-08-24T09:58:24;8.95;;;6.85;;
23300;SDS011;11819;51.394;12.340;2023-08-24T10:00:50;13.43;;;7.63;;
23300;SDS011;11819;51.394;12.340;2023-08-24T10:03:20;7.63;;;6.43;;
23300;SDS011;11819;51.394;12.340;2023-08-24T10:05:52;8.48;;;6.50;;
23300;SDS011;11819;51.394;12.340;2023-08-24T10:08:27;11.35;;;7.15;;
23300;SDS011;11819;51.394;12.340;2023-08-24T10:11:01;11.93;;;6.97;;
23300;SDS011;11819;51.394;12.340;2023-08-24T10:13:39;10.43;;;6.88;;
23300;SDS011;11819;51.394;12.340;2023-08-24T10:16:12;10.73;;;7.05;;
23300;SDS011;11819;51.394;12.340;2023-08-24T10:18:38;11.38;;;7.43;;
23300;SDS011;11819;51.394;12.340;2023-08-24T10:21:05;13.70;;;7.55;;
23300;SDS011;11819;51.394;12.340;2023-08-24T10:23:32;18.58;;;9.25;;
23300;SDS011;11819;51.394;12.340;2023-08-24T10:26:02;16.10;;;8.35;;
23300;SDS011;11819;51.394;12.340;2023-08-24T10:28:29;18.38;;;7.68;;
23300;SDS011;11819;51.394;12.340;2023-08-24T10:30:55;10.10;;;7.05;;
23300;SDS011;11819;51.394;12.340;2023-08-24T10:33:23;11.88;;;7.55;;
23300;SDS011;11819;51.394;12.340;2023-08-24T10:35:51;13.18;;;7.13;;
23300;SDS011;11819;51.394;12.340;2023-08-24T10:38:24;15.43;;;8.52;;
23300;SDS011;11819;51.394;12.340;2023-08-24T10:40:51;13.00;;;7.28;;
23300;SDS011;11819;51.394;12.340;2023-08-24T10:43:17;11.38;;;7.32;;
23300;SDS011;11819;51.394;12.340;2023-08-24T10:48:24;10.20;;;7.40;;
23300;SDS011;11819;51.394;12.340;2023-08-24T10:53:39;13.57;;;8.48;;
23300;SDS011;11819;51.394;12.340;2023-08-24T10:56:12;17.52;;;7.72;;
23300;SDS011;11819;51.394;12.340;2023-08-24T10:58:39;9.40;;;8.32;;
23300;SDS011;11819;51.394;12.340;2023-08-24T11:01:05;10.23;;;8.32;;
23300;SDS011;11819;51.394;12.340;2023-08-24T11:03:31;9.68;;;7.90;;
23300;SDS011;11819;51.394;12.340;2023-08-24T11:05:58;9.80;;;7.85;;
23300;SDS011;11819;51.394;12.340;2023-08-24T11:08:45;13.68;;;7.90;;
23300;SDS011;11819;51.394;12.340;2023-08-24T11:11:22;10.70;;;8.63;;
23300;SDS011;11819;51.394;12.340;2023-08-24T11:14:23;12.00;;;7.93;;
23300;SDS011;11819;51.394;12.340;2023-08-24T11:16:47;9.57;;;7.18;;
23300;SDS011;11819;51.394;12.340;2023-08-24T11:19:14;10.00;;;7.60;;
23300;SDS011;11819;51.394;12.340;2023-08-24T11:21:41;11.10;;;7.90;;
23300;SDS011;11819;51.394;12.340;2023-08-24T11:24:12;10.57;;;7.47;;
23300;SDS011;11819;51.394;12.340;2023-08-24T11:26:39;11.48;;;7.53;;
23300;SDS011;11819;51.394;12.340;2023-08-24T11:29:12;10.10;;;7.30;;
23300;SDS011;11819;51.394;12.340;2023-08-24T11:31:39;10.63;;;8.23;;
23300;SDS011;11819;51.394;12.340;2023-08-24T11:34:05;10.50;;;7.80;;
23300;SDS011;11819;51.394;12.340;2023-08-24T11:36:48;9.07;;;7.30;;
23300;SDS011;11819;51.394;12.340;2023-08-24T11:39:18;12.48;;;8.55;;
23300;SDS011;11819;51.394;12.340;2023-08-24T11:41:57;8.68;;;7.25;;
23300;SDS011;11819;51.394;12.340;2023-08-24T11:44:26;9.68;;;7.82;;
23300;SDS011;11819;51.394;12.340;2023-08-24T11:46:52;9.82;;;7.40;;
23300;SDS011;11819;51.394;12.340;2023-08-24T11:49:18;10.07;;;8.05;;
23300;SDS011;11819;51.394;12.340;2023-08-24T11:51:43;10.27;;;8.38;;
23300;SDS011;11819;51.394;12.340;2023-08-24T11:54:09;11.13;;;7.97;;
23300;SDS011;11819;51.394;12.340;2023-08-24T11:56:42;9.50;;;7.93;;
23300;SDS011;11819;51.394;12.340;2023-08-24T11:59:10;10.60;;;7.70;;
23300;SDS011;11819;51.394;12.340;2023-08-24T12:01:43;12.05;;;8.13;;
23300;SDS011;11819;51.394;12.340;2023-08-24T12:04:11;9.52;;;7.93;;
23300;SDS011;11819;51.394;12.340;2023-08-24T12:06:37;9.82;;;8.25;;
23300;SDS011;11819;51.394;12.340;2023-08-24T12:09:05;8.85;;;7.95;;
23300;SDS011;11819;51.394;12.340;2023-08-24T12:11:34;11.05;;;7.97;;
23300;SDS011;11819;51.394;12.340;2023-08-24T12:14:04;11.32;;;8.05;;
23300;SDS011;11819;51.394;12.340;2023-08-24T12:16:31;13.18;;;8.63;;
23300;SDS011;11819;51.394;12.340;2023-08-24T12:18:58;13.10;;;8.68;;
23300;SDS011;11819;51.394;12.340;2023-08-24T12:21:25;11.70;;;8.48;;
23300;SDS011;11819;51.394;12.340;2023-08-24T12:23:55;10.82;;;7.70;;
23300;SDS011;11819;51.394;12.340;2023-08-24T12:26:22;10.50;;;7.65;;
23300;SDS011;11819;51.394;12.340;2023-08-24T12:28:51;9.23;;;7.63;;
23300;SDS011;11819;51.394;12.340;2023-08-24T12:31:19;11.50;;;7.70;;
23300;SDS011;11819;51.394;12.340;2023-08-24T12:33:45;10.23;;;8.13;;
23300;SDS011;11819;51.394;12.340;2023-08-24T12:36:22;8.77;;;7.88;;
23300;SDS011;11819;51.394;12.340;2023-08-24T12:38:47;10.55;;;7.85;;
23300;SDS011;11819;51.394;12.340;2023-08-24T12:41:13;10.20;;;7.70;;
23300;SDS011;11819;51.394;12.340;2023-08-24T12:43:38;13.50;;;7.95;;
23300;SDS011;11819;51.394;12.340;2023-08-24T12:46:04;10.30;;;8.05;;
23300;SDS011;11819;51.394;12.340;2023-08-24T12:48:30;10.35;;;8.02;;
23300;SDS011;11819;51.394;12.340;2023-08-24T12:50:56;10.10;;;8.10;;
23300;SDS011;11819;51.394;12.340;2023-08-24T12:53:21;10.65;;;7.78;;
23300;SDS011;11819;51.394;12.340;2023-08-24T12:55:47;11.70;;;7.95;;
23300;SDS011;11819;51.394;12.340;2023-08-24T12:58:13;9.25;;;8.35;;
23300;SDS011;11819;51.394;12.340;2023-08-24T13:00:38;9.40;;;8.38;;
23300;SDS011;11819;51.394;12.340;2023-08-24T13:03:04;8.82;;;7.90;;
23300;SDS011;11819;51.394;12.340;2023-08-24T13:05:30;8.63;;;7.82;;
23300;SDS011;11819;51.394;12.340;2023-08-24T13:07:55;9.63;;;7.82;;
23300;SDS011;11819;51.394;12.340;2023-08-24T13:10:22;9.60;;;7.63;;
23300;SDS011;11819;51.394;12.340;2023-08-24T13:12:47;9.88;;;7.70;;
23300;SDS011;11819;51.394;12.340;2023-08-24T13:15:13;9.38;;;7.80;;
23300;SDS011;11819;51.394;12.340;2023-08-24T13:17:40;8.85;;;7.47;;
23300;SDS011;11819;51.394;12.340;2023-08-24T13:20:06;10.88;;;7.63;;
23300;SDS011;11819;51.394;12.340;2023-08-24T13:22:32;9.80;;;7.25;;
23300;SDS011;11819;51.394;12.340;2023-08-24T13:24:58;13.40;;;7.30;;
23300;SDS011;11819;51.394;12.340;2023-08-24T13:27:24;7.82;;;7.03;;
23300;SDS011;11819;51.394;12.340;2023-08-24T13:29:50;9.10;;;7.45;;
23300;SDS011;11819;51.394;12.340;2023-08-24T13:32:15;12.05;;;7.35;;
23300;SDS011;11819;51.394;12.340;2023-08-24T13:34:41;8.27;;;7.47;;
23300;SDS011;11819;51.394;12.340;2023-08-24T13:37:07;9.68;;;6.93;;
23300;SDS011;11819;51.394;12.340;2023-08-24T13:39:32;10.95;;;7.00;;
23300;SDS011;11819;51.394;12.340;2023-08-24T13:41:58;8.38;;;7.30;;
23300;SDS011;11819;51.394;12.340;2023-08-24T13:44:24;10.93;;;8.00;;
23300;SDS011;11819;51.394;12.340;2023-08-24T13:46:50;9.82;;;6.72;;
23300;SDS011;11819;51.394;12.340;2023-08-24T13:49:19;9.55;;;6.90;;
23300;SDS011;11819;51.394;12.340;2023-08-24T13:51:44;8.23;;;7.38;;
23300;SDS011;11819;51.394;12.340;2023-08-24T13:54:14;8.93;;;7.47;;
23300;SDS011;11819;51.394;12.340;2023-08-24T13:56:41;9.63;;;7.53;;
23300;SDS011;11819;51.394;12.340;2023-08-24T13:59:11;8.32;;;6.63;;
23300;SDS011;11819;51.394;12.340;2023-08-24T14:01:37;8.23;;;6.35;;
23300;SDS011;11819;51.394;12.340;2023-08-24T14:04:04;8.23;;;6.05;;
23300;SDS011;11819;51.394;12.340;2023-08-24T14:06:30;12.57;;;7.20;;
23300;SDS011;11819;51.394;12.340;2023-08-24T14:08:58;7.55;;;6.78;;
23300;SDS011;11819;51.394;12.340;2023-08-24T14:11:24;8.13;;;7.00;;
23300;SDS011;11819;51.394;12.340;2023-08-24T14:13:50;8.90;;;7.15;;
23300;SDS011;11819;51.394;12.340;2023-08-24T14:16:17;9.40;;;7.53;;
23300;SDS011;11819;51.394;12.340;2023-08-24T14:18:47;12.27;;;7.90;;
23300;SDS011;11819;51.394;12.340;2023-08-24T14:21:13;10.63;;;7.55;;
23300;SDS011;11819;51.394;12.340;2023-08-24T14:23:40;8.68;;;6.85;;
23300;SDS011;11819;51.394;12.340;2023-08-24T14:26:06;11.30;;;6.63;;
23300;SDS011;11819;51.394;12.340;2023-08-24T14:28:50;10.73;;;7.50;;